sensor_id;sensor_type;location;lat;lon;timestamp;P1;durP1;ratioP1;P2;durP2;ratioP2
25345;SDS011;13300;51.032;3.710;2022-07-29T00:01:06;9.07;;;3.05;;
25345;SDS011;13300;51.032;3.710;2022-07-29T00:03:32;6.22;;;3.10;;
25345;SDS011;13300;51.032;3.710;2022-07-29T00:05:58;10.07;;;2.78;;
25345;SDS011;13300;51.032;3.710;2022-07-29T00:10:59;6.07;;;2.55;;
25345;SDS011;13300;51.032;3.710;2022-07-29T00:13:25;4.75;;;2.38;;
25345;SDS011;13300;51.032;3.710;2022-07-29T00:15:50;6.65;;;2.45;;
25345;SDS011;13300;51.032;3.710;2022-07-29T00:18:17;5.43;;;2.60;;
25345;SDS011;13300;51.032;3.710;2022-07-29T00:20:46;5.67;;;2.50;;
25345;SDS011;13300;51.032;3.710;2022-07-29T00:23:11;6.43;;;2.67;;
25345;SDS011;13300;51.032;3.710;2022-07-29T00:25:37;6.28;;;2.63;;
25345;SDS011;13300;51.032;3.710;2022-07-29T00:28:03;7.18;;;2.92;;
25345;SDS011;13300;51.032;3.710;2022-07-29T00:30:29;4.38;;;2.67;;
25345;SDS011;13300;51.032;3.710;2022-07-29T00:32:55;7.05;;;3.08;;
25345;SDS011;13300;51.032;3.710;2022-07-29T00:35:21;5.63;;;2.78;;
25345;SDS011;13300;51.032;3.710;2022-07-29T00:38:05;6.57;;;2.63;;
25345;SDS011;13300;51.032;3.710;2022-07-29T00:40:31;4.13;;;2.50;;
25345;SDS011;13300;51.032;3.710;2022-07-29T00:42:57;5.25;;;2.72;;
25345;SDS011;13300;51.032;3.710;2022-07-29T00:45:23;7.40;;;2.67;;
25345;SDS011;13300;51.032;3.710;2022-07-29T00:47:48;3.22;;;2.17;;
25345;SDS011;13300;51.032;3.710;2022-07-29T00:50:15;5.97;;;2.50;;
25345;SDS011;13300;51.032;3.710;2022-07-29T00:52:41;6.03;;;2.80;;
25345;SDS011;13300;51.032;3.710;2022-07-29T00:55:11;3.95;;;2.55;;
25345;SDS011;13300;51.032;3.710;2022-07-29T00:57:39;5.57;;;2.70;;
25345;SDS011;13300;51.032;3.710;2022-07-29T01:00:07;4.45;;;2.42;;
25345;SDS011;13300;51.032;3.710;2022-07-29T01:02:34;6.97;;;2.30;;
25345;SDS011;13300;51.032;3.710;2022-07-29T01:05:01;5.65;;;2.50;;
25345;SDS011;13300;51.032;3.710;2022-07-29T01:07:28;8.35;;;2.80;;
25345;SDS011;13300;51.032;3.710;2022-07-29T01:09:55;7.57;;;2.45;;
25345;SDS011;13300;51.032;3.710;2022-07-29T01:12:24;5.15;;;2.20;;
25345;SDS011;13300;51.032;3.710;2022-07-29T01:14:52;6.28;;;2.70;;
25345;SDS011;13300;51.032;3.710;2022-07-29T01:26:01;6.32;;;2.60;;
25345;SDS011;13300;51.032;3.710;2022-07-29T01:39:45;7.55;;;2.63;;
25345;SDS011;13300;51.032;3.710;2022-07-29T01:47:37;5.10;;;2.20;;
25345;SDS011;13300;51.032;3.710;2022-07-29T01:50:07;4.68;;;2.60;;
25345;SDS011;13300;51.032;3.710;2022-07-29T01:52:38;5.43;;;2.33;;
25345;SDS011;13300;51.032;3.710;2022-07-29T01:55:11;5.72;;;2.60;;
25345;SDS011;13300;51.032;3.710;2022-07-29T01:57:40;3.25;;;2.40;;
25345;SDS011;13300;51.032;3.710;2022-07-29T02:00:09;6.13;;;2.60;;
25345;SDS011;13300;51.032;3.710;2022-07-29T02:02:37;6.20;;;2.55;;
25345;SDS011;13300;51.032;3.710;2022-07-29T02:05:05;4.28;;;2.72;;
25345;SDS011;13300;51.032;3.710;2022-07-29T02:07:34;3.92;;;2.40;;
25345;SDS011;13300;51.032;3.710;2022-07-29T02:10:02;4.45;;;2.20;;
25345;SDS011;13300;51.032;3.710;2022-07-29T02:12:29;3.38;;;2.20;;
25345;SDS011;13300;51.032;3.710;2022-07-29T02:14:58;6.07;;;2.50;;
25345;SDS011;13300;51.032;3.710;2022-07-29T02:17:29;4.43;;;2.47;;
25345;SDS011;13300;51.032;3.710;2022-07-29T02:20:00;6.28;;;2.10;;
25345;SDS011;13300;51.032;3.710;2022-07-29T02:22:29;4.50;;;2.50;;
25345;SDS011;13300;51.032;3.710;2022-07-29T02:24:58;4.93;;;2.22;;
25345;SDS011;13300;51.032;3.710;2022-07-29T02:27:25;4.20;;;2.08;;
25345;SDS011;13300;51.032;3.710;2022-07-29T02:29:53;4.57;;;2.25;;
25345;SDS011;13300;51.032;3.710;2022-07-29T02:32:21;3.83;;;2.25;;
25345;SDS011;13300;51.032;3.710;2022-07-29T02:34:49;3.08;;;2.10;;
25345;SDS011;13300;51.032;3.710;2022-07-29T02:37:16;7.22;;;2.05;;
25345;SDS011;13300;51.032;3.710;2022-07-29T02:39:43;7.65;;;2.40;;
25345;SDS011;13300;51.032;3.710;2022-07-29T02:42:15;5.22;;;2.05;;
25345;SDS011;13300;51.032;3.710;2022-07-29T02:44:43;6.07;;;2.55;;
25345;SDS011;13300;51.032;3.710;2022-07-29T02:47:20;3.60;;;2.20;;
25345;SDS011;13300;51.032;3.710;2022-07-29T02:55:57;4.50;;;2.85;;
25345;SDS011;13300;51.032;3.710;2022-07-29T02:58:13;11.65;;;2.50;;
25345;SDS011;13300;51.032;3.710;2022-07-29T03:00:47;5.90;;;2.22;;
25345;SDS011;13300;51.032;3.710;2022-07-29T03:03:17;6.63;;;2.40;;
25345;SDS011;13300;51.032;3.710;2022-07-29T03:05:44;3.70;;;2.05;;
25345;SDS011;13300;51.032;3.710;2022-07-29T03:08:11;6.70;;;2.30;;
25345;SDS011;13300;51.032;3.710;2022-07-29T03:10:42;6.20;;;2.30;;
25345;SDS011;13300;51.032;3.710;2022-07-29T03:13:09;6.05;;;2.38;;
25345;SDS011;13300;51.032;3.710;2022-07-29T03:15:37;5.60;;;2.25;;
25345;SDS011;13300;51.032;3.710;2022-07-29T03:18:04;3.63;;;2.50;;
25345;SDS011;13300;51.032;3.710;2022-07-29T03:20:31;4.30;;;2.60;;
25345;SDS011;13300;51.032;3.710;2022-07-29T03:22:57;4.90;;;2.20;;
25345;SDS011;13300;51.032;3.710;2022-07-29T03:25:23;5.00;;;2.35;;
25345;SDS011;13300;51.032;3.710;2022-07-29T03:27:49;5.22;;;2.03;;
25345;SDS011;13300;51.032;3.710;2022-07-29T03:30:14;4.45;;;2.50;;
25345;SDS011;13300;51.032;3.710;2022-07-29T03:32:41;4.15;;;2.30;;
25345;SDS011;13300;51.032;3.710;2022-07-29T03:35:06;6.43;;;2.08;;
25345;SDS011;13300;51.032;3.710;2022-07-29T03:37:33;4.50;;;2.65;;
25345;SDS011;13300;51.032;3.710;2022-07-29T03:40:02;5.60;;;2.40;;
25345;SDS011;13300;51.032;3.710;2022-07-29T03:42:33;6.57;;;2.35;;
25345;SDS011;13300;51.032;3.710;2022-07-29T03:45:03;12.13;;;2.90;;
25345;SDS011;13300;51.032;3.710;2022-07-29T03:47:32;5.75;;;2.50;;
25345;SDS011;13300;51.032;3.710;2022-07-29T03:50:05;4.53;;;2.40;;
25345;SDS011;13300;51.032;3.710;2022-07-29T03:52:33;5.20;;;2.55;;
25345;SDS011;13300;51.032;3.710;2022-07-29T03:55:00;5.82;;;2.72;;
25345;SDS011;13300;51.032;3.710;2022-07-29T03:57:27;7.53;;;2.92;;
25345;SDS011;13300;51.032;3.710;2022-07-29T03:59:55;6.38;;;2.50;;
25345;SDS011;13300;51.032;3.710;2022-07-29T04:02:22;5.32;;;2.60;;
25345;SDS011;13300;51.032;3.710;2022-07-29T04:04:50;4.55;;;2.42;;
25345;SDS011;13300;51.032;3.710;2022-07-29T04:07:16;7.78;;;2.50;;
25345;SDS011;13300;51.032;3.710;2022-07-29T04:09:42;6.70;;;2.63;;
25345;SDS011;13300;51.032;3.710;2022-07-29T04:12:08;3.85;;;2.28;;
25345;SDS011;13300;51.032;3.710;2022-07-29T04:14:35;4.90;;;2.40;;
25345;SDS011;13300;51.032;3.710;2022-07-29T04:17:01;5.03;;;2.67;;
25345;SDS011;13300;51.032;3.710;2022-07-29T04:19:28;6.43;;;2.78;;
25345;SDS011;13300;51.032;3.710;2022-07-29T04:21:54;3.30;;;2.17;;
25345;SDS011;13300;51.032;3.710;2022-07-29T04:24:20;5.32;;;2.85;;
25345;SDS011;13300;51.032;3.710;2022-07-29T04:26:46;6.13;;;2.70;;
25345;SDS011;13300;51.032;3.710;2022-07-29T04:29:12;6.35;;;2.90;;
25345;SDS011;13300;51.032;3.710;2022-07-29T04:31:39;5.05;;;2.72;;
25345;SDS011;13300;51.032;3.710;2022-07-29T04:34:06;6.63;;;2.80;;
25345;SDS011;13300;51.032;3.710;2022-07-29T04:36:32;7.05;;;2.75;;
25345;SDS011;13300;51.032;3.710;2022-07-29T04:38:58;6.00;;;2.85;;
25345;SDS011;13300;51.032;3.710;2022-07-29T04:41:24;11.32;;;3.15;;
25345;SDS011;13300;51.032;3.710;2022-07-29T04:43:49;8.50;;;4.03;;
25345;SDS011;13300;51.032;3.710;2022-07-29T04:46:15;5.82;;;4.75;;
25345;SDS011;13300;51.032;3.710;2022-07-29T04:48:41;5.93;;;3.90;;
25345;SDS011;13300;51.032;3.710;2022-07-29T04:51:07;8.93;;;5.13;;
25345;SDS011;13300;51.032;3.710;2022-07-29T04:53:32;8.90;;;4.82;;
25345;SDS011;13300;51.032;3.710;2022-07-29T04:55:58;10.95;;;5.55;;
25345;SDS011;13300;51.032;3.710;2022-07-29T04:58:24;8.60;;;5.38;;
25345;SDS011;13300;51.032;3.710;2022-07-29T05:00:50;9.07;;;5.22;;
25345;SDS011;13300;51.032;3.710;2022-07-29T05:03:16;13.65;;;5.28;;
25345;SDS011;13300;51.032;3.710;2022-07-29T05:05:42;8.77;;;5.40;;
25345;SDS011;13300;51.032;3.710;2022-07-29T05:08:08;9.68;;;5.32;;
25345;SDS011;13300;51.032;3.710;2022-07-29T05:10:34;6.38;;;4.78;;
25345;SDS011;13300;51.032;3.710;2022-07-29T05:13:03;7.47;;;5.13;;
25345;SDS011;13300;51.032;3.710;2022-07-29T05:15:31;10.25;;;4.85;;
25345;SDS011;13300;51.032;3.710;2022-07-29T05:17:57;7.97;;;4.47;;
25345;SDS011;13300;51.032;3.710;2022-07-29T05:20:22;6.03;;;4.38;;
25345;SDS011;13300;51.032;3.710;2022-07-29T05:25:22;14.27;;;4.97;;
25345;SDS011;13300;51.032;3.710;2022-07-29T05:27:48;6.60;;;3.50;;
25345;SDS011;13300;51.032;3.710;2022-07-29T05:30:15;6.55;;;4.22;;
25345;SDS011;13300;51.032;3.710;2022-07-29T05:32:41;7.55;;;3.92;;
25345;SDS011;13300;51.032;3.710;2022-07-29T05:35:06;7.78;;;3.83;;
25345;SDS011;13300;51.032;3.710;2022-07-29T05:37:34;7.82;;;3.90;;
25345;SDS011;13300;51.032;3.710;2022-07-29T05:40:00;9.00;;;3.97;;
25345;SDS011;13300;51.032;3.710;2022-07-29T05:42:27;6.82;;;3.97;;
25345;SDS011;13300;51.032;3.710;2022-07-29T05:44:54;6.65;;;3.83;;
25345;SDS011;13300;51.032;3.710;2022-07-29T05:47:20;10.27;;;4.10;;
25345;SDS011;13300;51.032;3.710;2022-07-29T05:49:46;7.07;;;3.80;;
25345;SDS011;13300;51.032;3.710;2022-07-29T05:52:12;8.63;;;4.10;;
25345;SDS011;13300;51.032;3.710;2022-07-29T05:54:38;9.60;;;4.22;;
25345;SDS011;13300;51.032;3.710;2022-07-29T05:57:04;10.15;;;4.72;;
25345;SDS011;13300;51.032;3.710;2022-07-29T05:59:30;15.77;;;5.60;;
25345;SDS011;13300;51.032;3.710;2022-07-29T06:02:00;16.35;;;7.05;;
25345;SDS011;13300;51.032;3.710;2022-07-29T06:04:26;15.40;;;5.97;;
25345;SDS011;13300;51.032;3.710;2022-07-29T06:06:51;12.32;;;5.82;;
25345;SDS011;13300;51.032;3.710;2022-07-29T06:09:17;12.85;;;6.07;;
25345;SDS011;13300;51.032;3.710;2022-07-29T06:11:43;10.70;;;5.88;;
25345;SDS011;13300;51.032;3.710;2022-07-29T06:14:09;11.70;;;6.50;;
25345;SDS011;13300;51.032;3.710;2022-07-29T06:16:35;15.40;;;6.50;;
25345;SDS011;13300;51.032;3.710;2022-07-29T06:19:00;12.73;;;6.38;;
25345;SDS011;13300;51.032;3.710;2022-07-29T06:21:26;15.70;;;6.88;;
25345;SDS011;13300;51.032;3.710;2022-07-29T06:23:52;32.53;;;17.65;;
25345;SDS011;13300;51.032;3.710;2022-07-29T06:26:18;10.63;;;7.38;;
25345;SDS011;13300;51.032;3.710;2022-07-29T06:28:43;14.00;;;7.07;;
25345;SDS011;13300;51.032;3.710;2022-07-29T06:31:09;15.10;;;6.38;;
25345;SDS011;13300;51.032;3.710;2022-07-29T06:33:35;13.05;;;6.32;;
25345;SDS011;13300;51.032;3.710;2022-07-29T06:36:03;14.48;;;6.75;;
25345;SDS011;13300;51.032;3.710;2022-07-29T06:38:31;13.40;;;6.60;;
25345;SDS011;13300;51.032;3.710;2022-07-29T06:40:57;13.23;;;7.22;;
25345;SDS011;13300;51.032;3.710;2022-07-29T06:43:35;14.85;;;6.35;;
25345;SDS011;13300;51.032;3.710;2022-07-29T06:46:06;15.32;;;6.90;;
25345;SDS011;13300;51.032;3.710;2022-07-29T06:48:37;13.50;;;7.18;;
25345;SDS011;13300;51.032;3.710;2022-07-29T06:51:03;18.63;;;7.93;;
25345;SDS011;13300;51.032;3.710;2022-07-29T06:53:30;14.15;;;7.30;;
25345;SDS011;13300;51.032;3.710;2022-07-29T06:56:00;11.80;;;8.15;;
25345;SDS011;13300;51.032;3.710;2022-07-29T06:58:30;15.23;;;7.22;;
25345;SDS011;13300;51.032;3.710;2022-07-29T07:00:56;12.30;;;6.47;;
25345;SDS011;13300;51.032;3.710;2022-07-29T07:03:23;13.98;;;6.40;;
25345;SDS011;13300;51.032;3.710;2022-07-29T07:05:49;12.38;;;6.30;;
25345;SDS011;13300;51.032;3.710;2022-07-29T07:08:16;12.30;;;6.47;;
25345;SDS011;13300;51.032;3.710;2022-07-29T07:10:42;13.35;;;6.72;;
25345;SDS011;13300;51.032;3.710;2022-07-29T07:13:09;9.98;;;7.35;;
25345;SDS011;13300;51.032;3.710;2022-07-29T07:15:35;17.42;;;6.72;;
25345;SDS011;13300;51.032;3.710;2022-07-29T07:18:01;13.20;;;7.68;;
25345;SDS011;13300;51.032;3.710;2022-07-29T07:20:28;10.10;;;6.45;;
25345;SDS011;13300;51.032;3.710;2022-07-29T07:22:57;12.63;;;6.68;;
25345;SDS011;13300;51.032;3.710;2022-07-29T07:25:23;13.40;;;7.18;;
25345;SDS011;13300;51.032;3.710;2022-07-29T07:27:49;14.40;;;7.45;;
25345;SDS011;13300;51.032;3.710;2022-07-29T07:30:15;13.75;;;8.05;;
25345;SDS011;13300;51.032;3.710;2022-07-29T07:32:41;11.32;;;7.47;;
25345;SDS011;13300;51.032;3.710;2022-07-29T07:35:12;15.40;;;8.18;;
25345;SDS011;13300;51.032;3.710;2022-07-29T07:37:39;12.30;;;8.07;;
25345;SDS011;13300;51.032;3.710;2022-07-29T07:40:08;12.70;;;9.37;;
25345;SDS011;13300;51.032;3.710;2022-07-29T07:42:53;11.32;;;8.05;;
25345;SDS011;13300;51.032;3.710;2022-07-29T07:51:30;17.48;;;10.55;;
25345;SDS011;13300;51.032;3.710;2022-07-29T08:00:25;20.50;;;11.82;;
25345;SDS011;13300;51.032;3.710;2022-07-29T08:02:54;19.47;;;14.17;;
25345;SDS011;13300;51.032;3.710;2022-07-29T08:05:22;24.35;;;13.80;;
25345;SDS011;13300;51.032;3.710;2022-07-29T08:08:03;26.27;;;16.90;;
25345;SDS011;13300;51.032;3.710;2022-07-29T08:10:36;23.00;;;16.52;;
25345;SDS011;13300;51.032;3.710;2022-07-29T08:13:25;30.27;;;18.52;;
25345;SDS011;13300;51.032;3.710;2022-07-29T08:16:00;29.75;;;18.25;;
25345;SDS011;13300;51.032;3.710;2022-07-29T08:18:39;26.90;;;15.60;;
25345;SDS011;13300;51.032;3.710;2022-07-29T08:21:14;16.92;;;9.68;;
25345;SDS011;13300;51.032;3.710;2022-07-29T08:23:48;17.42;;;10.15;;
25345;SDS011;13300;51.032;3.710;2022-07-29T08:26:46;17.60;;;8.20;;
25345;SDS011;13300;51.032;3.710;2022-07-29T08:29:18;13.60;;;5.68;;
25345;SDS011;13300;51.032;3.710;2022-07-29T08:31:51;9.57;;;5.97;;
25345;SDS011;13300;51.032;3.710;2022-07-29T08:34:21;8.50;;;4.60;;
25345;SDS011;13300;51.032;3.710;2022-07-29T08:36:52;7.47;;;4.00;;
25345;SDS011;13300;51.032;3.710;2022-07-29T08:39:24;12.05;;;4.25;;
25345;SDS011;13300;51.032;3.710;2022-07-29T08:41:55;13.80;;;6.20;;
25345;SDS011;13300;51.032;3.710;2022-07-29T08:44:25;9.93;;;4.78;;
25345;SDS011;13300;51.032;3.710;2022-07-29T08:47:42;8.50;;;4.38;;
25345;SDS011;13300;51.032;3.710;2022-07-29T08:57:27;8.40;;;4.00;;
25345;SDS011;13300;51.032;3.710;2022-07-29T09:00:05;4.70;;;3.80;;
25345;SDS011;13300;51.032;3.710;2022-07-29T09:23:19;6.45;;;3.13;;
25345;SDS011;13300;51.032;3.710;2022-07-29T09:25:54;8.88;;;3.10;;
25345;SDS011;13300;51.032;3.710;2022-07-29T09:28:34;4.88;;;2.90;;
25345;SDS011;13300;51.032;3.710;2022-07-29T09:31:16;5.88;;;3.60;;
25345;SDS011;13300;51.032;3.710;2022-07-29T09:34:00;6.53;;;3.50;;
25345;SDS011;13300;51.032;3.710;2022-07-29T09:36:46;5.47;;;2.40;;
25345;SDS011;13300;51.032;3.710;2022-07-29T09:53:40;7.13;;;2.22;;
25345;SDS011;13300;51.032;3.710;2022-07-29T10:17:15;4.30;;;2.88;;
25345;SDS011;13300;51.032;3.710;2022-07-29T10:19:41;7.07;;;2.80;;
25345;SDS011;13300;51.032;3.710;2022-07-29T10:22:09;5.35;;;2.83;;
25345;SDS011;13300;51.032;3.710;2022-07-29T10:24:36;4.95;;;2.58;;
25345;SDS011;13300;51.032;3.710;2022-07-29T10:27:04;7.55;;;2.88;;
25345;SDS011;13300;51.032;3.710;2022-07-29T10:29:31;4.50;;;2.28;;
25345;SDS011;13300;51.032;3.710;2022-07-29T10:35:01;9.40;;;4.70;;
25345;SDS011;13300;51.032;3.710;2022-07-29T10:43:44;5.05;;;2.05;;
25345;SDS011;13300;51.032;3.710;2022-07-29T10:46:12;3.88;;;1.92;;
25345;SDS011;13300;51.032;3.710;2022-07-29T10:54:15;2.88;;;1.60;;
25345;SDS011;13300;51.032;3.710;2022-07-29T10:56:41;5.43;;;2.65;;
25345;SDS011;13300;51.032;3.710;2022-07-29T11:01:54;9.60;;;1.83;;
25345;SDS011;13300;51.032;3.710;2022-07-29T11:07:10;4.35;;;1.52;;
25345;SDS011;13300;51.032;3.710;2022-07-29T11:09:37;4.22;;;2.17;;
25345;SDS011;13300;51.032;3.710;2022-07-29T11:12:04;6.40;;;1.95;;
25345;SDS011;13300;51.032;3.710;2022-07-29T11:15:01;4.43;;;1.90;;
25345;SDS011;13300;51.032;3.710;2022-07-29T11:18:02;4.40;;;1.98;;
25345;SDS011;13300;51.032;3.710;2022-07-29T11:23:22;15.38;;;7.00;;
25345;SDS011;13300;51.032;3.710;2022-07-29T11:31:41;5.40;;;2.20;;
25345;SDS011;13300;51.032;3.710;2022-07-29T11:34:19;6.93;;;2.90;;
25345;SDS011;13300;51.032;3.710;2022-07-29T11:50:28;2.88;;;1.75;;
25345;SDS011;13300;51.032;3.710;2022-07-29T11:52:56;4.88;;;1.95;;
25345;SDS011;13300;51.032;3.710;2022-07-29T11:55:25;4.60;;;1.77;;
25345;SDS011;13300;51.032;3.710;2022-07-29T11:57:51;4.78;;;1.90;;
25345;SDS011;13300;51.032;3.710;2022-07-29T12:00:34;5.57;;;2.55;;
25345;SDS011;13300;51.032;3.710;2022-07-29T12:03:05;5.22;;;2.08;;
25345;SDS011;13300;51.032;3.710;2022-07-29T12:05:44;4.57;;;2.00;;
25345;SDS011;13300;51.032;3.710;2022-07-29T12:08:11;4.63;;;2.25;;
25345;SDS011;13300;51.032;3.710;2022-07-29T12:10:44;9.15;;;3.67;;
25345;SDS011;13300;51.032;3.710;2022-07-29T12:13:11;3.47;;;2.28;;
25345;SDS011;13300;51.032;3.710;2022-07-29T12:15:37;5.60;;;2.10;;
25345;SDS011;13300;51.032;3.710;2022-07-29T12:18:17;5.50;;;2.42;;
25345;SDS011;13300;51.032;3.710;2022-07-29T12:20:43;2.88;;;1.55;;
25345;SDS011;13300;51.032;3.710;2022-07-29T12:23:10;5.30;;;1.88;;
25345;SDS011;13300;51.032;3.710;2022-07-29T12:25:37;4.05;;;2.00;;
25345;SDS011;13300;51.032;3.710;2022-07-29T12:28:05;8.88;;;2.20;;
25345;SDS011;13300;51.032;3.710;2022-07-29T12:30:37;5.53;;;3.20;;
25345;SDS011;13300;51.032;3.710;2022-07-29T12:33:10;3.78;;;1.85;;
25345;SDS011;13300;51.032;3.710;2022-07-29T12:35:37;4.28;;;2.15;;
25345;SDS011;13300;51.032;3.710;2022-07-29T12:38:03;7.35;;;1.98;;
25345;SDS011;13300;51.032;3.710;2022-07-29T12:40:30;7.00;;;1.95;;
25345;SDS011;13300;51.032;3.710;2022-07-29T12:45:32;4.65;;;1.83;;
25345;SDS011;13300;51.032;3.710;2022-07-29T12:47:58;2.38;;;1.73;;
25345;SDS011;13300;51.032;3.710;2022-07-29T12:50:24;7.05;;;1.88;;
25345;SDS011;13300;51.032;3.710;2022-07-29T12:52:50;3.70;;;2.00;;
25345;SDS011;13300;51.032;3.710;2022-07-29T12:58:37;5.30;;;2.10;;
25345;SDS011;13300;51.032;3.710;2022-07-29T13:01:17;2.50;;;1.85;;
25345;SDS011;13300;51.032;3.710;2022-07-29T13:03:57;5.65;;;2.05;;
25345;SDS011;13300;51.032;3.710;2022-07-29T13:06:32;3.95;;;1.88;;
25345;SDS011;13300;51.032;3.710;2022-07-29T13:09:05;10.48;;;2.30;;
25345;SDS011;13300;51.032;3.710;2022-07-29T13:11:49;8.05;;;2.40;;
25345;SDS011;13300;51.032;3.710;2022-07-29T13:14:31;2.97;;;2.38;;
25345;SDS011;13300;51.032;3.710;2022-07-29T13:16:59;3.15;;;1.52;;
25345;SDS011;13300;51.032;3.710;2022-07-29T13:19:39;6.30;;;3.20;;
25345;SDS011;13300;51.032;3.710;2022-07-29T13:22:24;7.50;;;2.20;;
25345;SDS011;13300;51.032;3.710;2022-07-29T13:24:58;3.80;;;1.80;;
25345;SDS011;13300;51.032;3.710;2022-07-29T13:27:49;5.97;;;2.13;;
25345;SDS011;13300;51.032;3.710;2022-07-29T13:30:15;5.45;;;1.80;;
25345;SDS011;13300;51.032;3.710;2022-07-29T13:32:50;4.40;;;1.73;;
25345;SDS011;13300;51.032;3.710;2022-07-29T13:35:20;2.55;;;1.67;;
25345;SDS011;13300;51.032;3.710;2022-07-29T13:37:46;9.85;;;4.22;;
25345;SDS011;13300;51.032;3.710;2022-07-29T13:40:12;6.18;;;3.75;;
25345;SDS011;13300;51.032;3.710;2022-07-29T13:42:46;4.13;;;1.90;;
25345;SDS011;13300;51.032;3.710;2022-07-29T13:45:14;7.38;;;2.92;;
25345;SDS011;13300;51.032;3.710;2022-07-29T13:47:40;5.72;;;2.50;;
25345;SDS011;13300;51.032;3.710;2022-07-29T13:50:11;9.35;;;2.28;;
25345;SDS011;13300;51.032;3.710;2022-07-29T13:52:40;7.13;;;2.55;;
25345;SDS011;13300;51.032;3.710;2022-07-29T13:55:06;6.13;;;2.38;;
25345;SDS011;13300;51.032;3.710;2022-07-29T13:57:54;6.40;;;2.13;;
25345;SDS011;13300;51.032;3.710;2022-07-29T14:00:52;4.15;;;1.65;;
25345;SDS011;13300;51.032;3.710;2022-07-29T14:03:18;2.90;;;1.83;;
25345;SDS011;13300;51.032;3.710;2022-07-29T14:05:51;6.45;;;1.98;;
25345;SDS011;13300;51.032;3.710;2022-07-29T14:08:17;5.68;;;2.10;;
25345;SDS011;13300;51.032;3.710;2022-07-29T14:10:43;4.95;;;2.00;;
25345;SDS011;13300;51.032;3.710;2022-07-29T14:13:09;3.70;;;2.00;;
25345;SDS011;13300;51.032;3.710;2022-07-29T14:15:35;3.30;;;1.88;;
25345;SDS011;13300;51.032;3.710;2022-07-29T14:18:01;8.38;;;1.88;;
25345;SDS011;13300;51.032;3.710;2022-07-29T14:20:27;5.43;;;1.70;;
25345;SDS011;13300;51.032;3.710;2022-07-29T14:22:55;5.32;;;1.80;;
25345;SDS011;13300;51.032;3.710;2022-07-29T14:25:22;3.97;;;1.80;;
25345;SDS011;13300;51.032;3.710;2022-07-29T14:27:48;5.45;;;1.80;;
25345;SDS011;13300;51.032;3.710;2022-07-29T14:30:14;5.20;;;2.03;;
25345;SDS011;13300;51.032;3.710;2022-07-29T14:32:40;9.95;;;2.70;;
25345;SDS011;13300;51.032;3.710;2022-07-29T14:35:06;4.97;;;1.92;;
25345;SDS011;13300;51.032;3.710;2022-07-29T14:37:33;6.30;;;2.90;;
25345;SDS011;13300;51.032;3.710;2022-07-29T14:40:01;4.22;;;1.90;;
25345;SDS011;13300;51.032;3.710;2022-07-29T14:42:29;4.20;;;2.05;;
25345;SDS011;13300;51.032;3.710;2022-07-29T14:44:56;5.88;;;1.83;;
25345;SDS011;13300;51.032;3.710;2022-07-29T14:47:22;7.07;;;2.10;;
25345;SDS011;13300;51.032;3.710;2022-07-29T14:49:48;4.72;;;2.03;;
25345;SDS011;13300;51.032;3.710;2022-07-29T14:52:14;5.22;;;2.25;;
25345;SDS011;13300;51.032;3.710;2022-07-29T14:54:40;4.35;;;1.90;;
25345;SDS011;13300;51.032;3.710;2022-07-29T14:57:05;3.53;;;2.45;;
25345;SDS011;13300;51.032;3.710;2022-07-29T14:59:31;11.88;;;2.15;;
25345;SDS011;13300;51.032;3.710;2022-07-29T15:02:01;4.78;;;2.50;;
25345;SDS011;13300;51.032;3.710;2022-07-29T15:04:51;5.88;;;2.00;;
25345;SDS011;13300;51.032;3.710;2022-07-29T15:07:17;4.18;;;1.95;;
25345;SDS011;13300;51.032;3.710;2022-07-29T15:09:42;5.13;;;1.98;;
25345;SDS011;13300;51.032;3.710;2022-07-29T15:12:10;3.60;;;1.60;;
25345;SDS011;13300;51.032;3.710;2022-07-29T15:14:38;6.75;;;1.98;;
25345;SDS011;13300;51.032;3.710;2022-07-29T15:17:03;9.43;;;4.85;;
25345;SDS011;13300;51.032;3.710;2022-07-29T15:19:29;6.38;;;2.60;;
25345;SDS011;13300;51.032;3.710;2022-07-29T15:21:55;4.03;;;1.98;;
25345;SDS011;13300;51.032;3.710;2022-07-29T15:24:21;5.07;;;1.92;;
25345;SDS011;13300;51.032;3.710;2022-07-29T15:26:46;6.55;;;1.88;;
25345;SDS011;13300;51.032;3.710;2022-07-29T15:29:12;6.82;;;2.38;;
25345;SDS011;13300;51.032;3.710;2022-07-29T15:31:38;4.28;;;1.60;;
25345;SDS011;13300;51.032;3.710;2022-07-29T15:34:04;4.32;;;1.80;;
25345;SDS011;13300;51.032;3.710;2022-07-29T15:36:30;6.03;;;1.60;;
25345;SDS011;13300;51.032;3.710;2022-07-29T15:38:56;5.65;;;2.10;;
25345;SDS011;13300;51.032;3.710;2022-07-29T15:41:22;4.55;;;1.95;;
25345;SDS011;13300;51.032;3.710;2022-07-29T15:43:54;3.90;;;1.70;;
25345;SDS011;13300;51.032;3.710;2022-07-29T15:46:20;6.60;;;2.03;;
25345;SDS011;13300;51.032;3.710;2022-07-29T15:49:04;7.90;;;2.33;;
25345;SDS011;13300;51.032;3.710;2022-07-29T15:51:32;5.75;;;1.88;;
25345;SDS011;13300;51.032;3.710;2022-07-29T15:53:57;4.47;;;1.80;;
25345;SDS011;13300;51.032;3.710;2022-07-29T15:56:25;5.95;;;1.98;;
25345;SDS011;13300;51.032;3.710;2022-07-29T15:58:51;3.80;;;1.70;;
25345;SDS011;13300;51.032;3.710;2022-07-29T16:01:17;4.10;;;1.67;;
25345;SDS011;13300;51.032;3.710;2022-07-29T16:03:43;6.47;;;2.10;;
25345;SDS011;13300;51.032;3.710;2022-07-29T16:06:08;3.97;;;1.65;;
25345;SDS011;13300;51.032;3.710;2022-07-29T16:08:34;3.92;;;1.45;;
25345;SDS011;13300;51.032;3.710;2022-07-29T16:11:00;7.82;;;1.83;;
25345;SDS011;13300;51.032;3.710;2022-07-29T16:13:26;4.53;;;1.80;;
25345;SDS011;13300;51.032;3.710;2022-07-29T16:15:52;5.30;;;1.77;;
25345;SDS011;13300;51.032;3.710;2022-07-29T16:18:17;4.68;;;2.08;;
25345;SDS011;13300;51.032;3.710;2022-07-29T16:20:43;7.18;;;1.73;;
25345;SDS011;13300;51.032;3.710;2022-07-29T16:23:09;6.97;;;2.38;;
25345;SDS011;13300;51.032;3.710;2022-07-29T16:25:37;3.70;;;2.00;;
25345;SDS011;13300;51.032;3.710;2022-07-29T16:28:03;6.38;;;2.20;;
25345;SDS011;13300;51.032;3.710;2022-07-29T16:30:29;5.65;;;2.38;;
25345;SDS011;13300;51.032;3.710;2022-07-29T16:32:55;5.70;;;1.92;;
25345;SDS011;13300;51.032;3.710;2022-07-29T16:35:21;6.45;;;2.30;;
25345;SDS011;13300;51.032;3.710;2022-07-29T16:37:47;7.25;;;3.05;;
25345;SDS011;13300;51.032;3.710;2022-07-29T16:40:23;5.93;;;2.33;;
25345;SDS011;13300;51.032;3.710;2022-07-29T16:43:09;8.07;;;2.47;;
25345;SDS011;13300;51.032;3.710;2022-07-29T16:45:35;3.85;;;1.92;;
25345;SDS011;13300;51.032;3.710;2022-07-29T16:48:04;3.70;;;1.85;;
25345;SDS011;13300;51.032;3.710;2022-07-29T16:50:29;6.20;;;2.28;;
25345;SDS011;13300;51.032;3.710;2022-07-29T16:52:55;5.03;;;2.53;;
25345;SDS011;13300;51.032;3.710;2022-07-29T16:55:22;3.70;;;1.55;;
25345;SDS011;13300;51.032;3.710;2022-07-29T16:57:48;4.38;;;2.30;;
25345;SDS011;13300;51.032;3.710;2022-07-29T17:00:16;5.80;;;2.10;;
25345;SDS011;13300;51.032;3.710;2022-07-29T17:02:42;6.65;;;1.90;;
25345;SDS011;13300;51.032;3.710;2022-07-29T17:05:08;5.82;;;1.98;;
25345;SDS011;13300;51.032;3.710;2022-07-29T17:07:35;4.15;;;1.70;;
25345;SDS011;13300;51.032;3.710;2022-07-29T17:10:01;4.65;;;1.65;;
25345;SDS011;13300;51.032;3.710;2022-07-29T17:12:29;10.77;;;2.30;;
25345;SDS011;13300;51.032;3.710;2022-07-29T17:14:56;11.18;;;2.80;;
25345;SDS011;13300;51.032;3.710;2022-07-29T17:17:26;5.78;;;2.25;;
25345;SDS011;13300;51.032;3.710;2022-07-29T17:19:53;5.32;;;2.38;;
25345;SDS011;13300;51.032;3.710;2022-07-29T17:22:19;6.72;;;2.17;;
25345;SDS011;13300;51.032;3.710;2022-07-29T17:24:45;6.97;;;2.38;;
25345;SDS011;13300;51.032;3.710;2022-07-29T17:27:11;8.07;;;2.00;;
25345;SDS011;13300;51.032;3.710;2022-07-29T17:29:37;6.47;;;2.22;;
25345;SDS011;13300;51.032;3.710;2022-07-29T17:32:03;7.85;;;3.47;;
25345;SDS011;13300;51.032;3.710;2022-07-29T17:34:29;9.77;;;4.00;;
25345;SDS011;13300;51.032;3.710;2022-07-29T17:36:55;5.68;;;2.65;;